createdAt,value
2016-06-23T00:00:37.595Z,0
2016-06-23T00:01:37.590Z,0
2016-06-23T00:02:37.589Z,0
2016-06-23T00:03:37.596Z,0
2016-06-23T00:04:37.605Z,0
2016-06-23T00:05:37.589Z,0
2016-06-23T00:06:37.609Z,0
2016-06-23T00:07:37.611Z,0
2016-06-23T00:08:37.604Z,0
2016-06-23T00:09:37.610Z,0
2016-06-23T00:10:37.618Z,0
2016-06-23T00:11:37.619Z,0
2016-06-23T00:12:37.611Z,0
2016-06-23T00:13:37.609Z,0
2016-06-23T00:14:37.619Z,0
2016-06-23T00:15:37.623Z,0
2016-06-23T00:16:37.641Z,0
2016-06-23T00:17:37.718Z,0
2016-06-23T00:18:37.659Z,0
2016-06-23T00:19:37.641Z,0
2016-06-23T00:20:37.640Z,0
2016-06-23T00:21:37.645Z,0
2016-06-23T00:22:37.663Z,0
2016-06-23T00:23:37.641Z,0
2016-06-23T00:24:37.617Z,0
2016-06-23T00:25:37.655Z,0
2016-06-23T00:26:37.634Z,0
2016-06-23T00:27:37.678Z,0
2016-06-23T00:28:37.638Z,0
2016-06-23T00:29:37.637Z,0
2016-06-23T00:30:37.640Z,0
2016-06-23T00:31:37.654Z,0
2016-06-23T00:32:37.650Z,0
2016-06-23T00:33:37.658Z,0
2016-06-23T00:34:37.664Z,0
2016-06-23T00:35:37.660Z,0
2016-06-23T00:36:37.650Z,0
2016-06-23T00:37:37.664Z,0
2016-06-23T00:38:37.664Z,0
2016-06-23T00:39:37.663Z,0
2016-06-23T00:40:37.657Z,0
2016-06-23T00:41:37.070Z,0
2016-06-23T00:42:37.665Z,0
2016-06-23T00:43:37.666Z,0
2016-06-23T00:44:37.688Z,0
2016-06-23T00:45:37.677Z,0
2016-06-23T00:46:37.678Z,0
2016-06-23T00:47:37.690Z,0
2016-06-23T00:48:37.701Z,0
2016-06-23T00:49:37.695Z,0
2016-06-23T00:50:37.694Z,0
2016-06-23T00:51:37.707Z,0
2016-06-23T00:52:37.692Z,0
2016-06-23T00:53:37.688Z,0
2016-06-23T00:54:37.701Z,0
2016-06-23T00:55:37.703Z,0
2016-06-23T00:56:37.699Z,0
2016-06-23T00:57:37.735Z,0
2016-06-23T00:58:37.705Z,0
2016-06-23T00:59:37.710Z,0
2016-06-23T01:00:37.725Z,0
2016-06-23T01:01:37.726Z,0
2016-06-23T01:02:37.724Z,0
2016-06-23T01:03:37.725Z,0
2016-06-23T01:04:37.729Z,0
2016-06-23T01:05:37.717Z,0
2016-06-23T01:06:37.723Z,0
2016-06-23T01:07:37.964Z,0
2016-06-23T01:08:37.816Z,0
2016-06-23T01:09:37.868Z,0
2016-06-23T01:10:37.864Z,0
2016-06-23T01:11:37.994Z,0
2016-06-23T01:12:38.023Z,0
2016-06-23T01:13:37.889Z,0
2016-06-23T01:14:37.740Z,0
2016-06-23T01:15:37.737Z,0
2016-06-23T01:16:37.735Z,0
2016-06-23T01:17:37.732Z,0
2016-06-23T01:18:37.738Z,0
2016-06-23T01:19:37.952Z,0
2016-06-23T01:20:37.746Z,0
2016-06-23T01:21:37.749Z,0
2016-06-23T01:22:37.753Z,0
2016-06-23T01:23:37.768Z,0
2016-06-23T01:24:37.748Z,0
2016-06-23T01:25:37.759Z,0
2016-06-23T01:26:37.760Z,0
2016-06-23T01:27:37.752Z,0
2016-06-23T01:28:37.756Z,0
2016-06-23T01:29:37.759Z,0
2016-06-23T01:30:37.768Z,0
2016-06-23T01:31:37.767Z,0
2016-06-23T01:32:37.777Z,0
2016-06-23T01:33:37.777Z,0
2016-06-23T01:34:37.768Z,0
2016-06-23T01:35:37.783Z,0
2016-06-23T01:36:37.761Z,0
2016-06-23T01:37:37.776Z,0
2016-06-23T01:38:37.780Z,0
2016-06-23T01:39:37.768Z,0
2016-06-23T01:40:37.773Z,0
2016-06-23T01:41:37.822Z,0
2016-06-23T01:42:37.792Z,0
2016-06-23T01:43:37.782Z,0
2016-06-23T01:44:37.783Z,0
2016-06-23T01:45:37.783Z,0
2016-06-23T01:46:37.794Z,0
2016-06-23T01:47:37.809Z,0
2016-06-23T01:48:37.783Z,0
2016-06-23T01:49:37.190Z,0
2016-06-23T01:50:37.806Z,0
2016-06-23T01:51:37.790Z,0
2016-06-23T01:52:37.799Z,0
2016-06-23T01:53:37.802Z,0
2016-06-23T01:54:37.791Z,0
2016-06-23T01:55:37.797Z,0
2016-06-23T01:56:37.810Z,0
2016-06-23T01:57:37.813Z,0
2016-06-23T01:58:37.804Z,0
2016-06-23T01:59:37.802Z,0
2016-06-23T02:00:37.819Z,0
2016-06-23T02:01:37.812Z,0
2016-06-23T02:02:37.816Z,0
2016-06-23T02:03:37.206Z,0
2016-06-23T02:04:37.826Z,0
2016-06-23T02:05:37.832Z,0
2016-06-23T02:06:37.829Z,0
2016-06-23T02:07:37.826Z,0
2016-06-23T02:08:37.844Z,0
2016-06-23T02:09:37.833Z,0
2016-06-23T02:10:37.838Z,0
2016-06-23T02:11:37.876Z,0
2016-06-23T02:12:37.853Z,0
2016-06-23T02:13:37.839Z,0
2016-06-23T02:14:37.846Z,0
2016-06-23T02:15:37.856Z,0
2016-06-23T02:16:37.828Z,0
2016-06-23T02:17:37.878Z,0
2016-06-23T02:18:37.859Z,0
2016-06-23T02:19:37.853Z,0
2016-06-23T02:20:37.852Z,0
2016-06-23T02:21:37.854Z,0
2016-06-23T02:22:37.856Z,0
2016-06-23T02:23:37.847Z,0
2016-06-23T02:24:37.852Z,0
2016-06-23T02:25:37.859Z,0
2016-06-23T02:26:37.853Z,0
2016-06-23T02:27:37.855Z,0
2016-06-23T02:28:37.856Z,0
2016-06-23T02:29:37.853Z,0
2016-06-23T02:30:37.858Z,0
2016-06-23T02:31:37.872Z,0
2016-06-23T02:32:37.850Z,0
2016-06-23T02:33:37.869Z,0
2016-06-23T02:34:37.865Z,0
2016-06-23T02:35:37.864Z,0
2016-06-23T02:36:37.858Z,0
2016-06-23T02:37:37.872Z,0
2016-06-23T02:38:37.887Z,0
2016-06-23T02:39:37.864Z,0
2016-06-23T02:40:37.876Z,0
2016-06-23T02:41:37.881Z,0
2016-06-23T02:42:37.868Z,0
2016-06-23T02:43:37.887Z,0
2016-06-23T02:44:37.875Z,0
2016-06-23T02:45:37.878Z,0
2016-06-23T02:46:37.880Z,0
2016-06-23T02:47:37.878Z,0
2016-06-23T02:48:37.874Z,0
2016-06-23T02:49:37.894Z,0
2016-06-23T02:50:37.895Z,0
2016-06-23T02:51:37.898Z,0
2016-06-23T02:52:37.898Z,0
2016-06-23T02:53:37.900Z,0
2016-06-23T02:54:37.903Z,0
2016-06-23T02:55:37.904Z,0
2016-06-23T02:56:37.923Z,0
2016-06-23T02:57:37.904Z,0
2016-06-23T02:58:37.918Z,0
2016-06-23T02:59:37.908Z,0
2016-06-23T03:00:37.895Z,0
2016-06-23T03:01:37.932Z,0
2016-06-23T03:02:37.914Z,0
2016-06-23T03:03:37.907Z,0
2016-06-23T03:04:37.947Z,0
2016-06-23T03:05:37.918Z,0
2016-06-23T03:06:37.903Z,0
2016-06-23T03:07:37.923Z,0
2016-06-23T03:08:37.943Z,0
2016-06-23T03:09:37.911Z,0
2016-06-23T03:10:37.921Z,0
2016-06-23T03:11:37.923Z,0
2016-06-23T03:12:37.934Z,0
2016-06-23T03:13:37.919Z,0
2016-06-23T03:14:37.926Z,0
2016-06-23T03:15:37.941Z,4
2016-06-23T03:16:37.934Z,4
2016-06-23T03:17:37.932Z,4
2016-06-23T03:18:37.961Z,4
2016-06-23T03:19:37.939Z,4
2016-06-23T03:20:37.927Z,0
2016-06-23T03:21:37.347Z,0
2016-06-23T03:22:37.937Z,0
2016-06-23T03:23:37.331Z,4
2016-06-23T03:24:37.954Z,4
2016-06-23T03:25:37.929Z,4
2016-06-23T03:26:37.975Z,4
2016-06-23T03:27:37.959Z,4
2016-06-23T03:28:37.936Z,8
2016-06-23T03:29:37.963Z,4
2016-06-23T03:30:37.951Z,4
2016-06-23T03:31:37.957Z,4
2016-06-23T03:32:37.963Z,4
2016-06-23T03:33:37.953Z,4
2016-06-23T03:34:37.954Z,8
2016-06-23T03:35:37.965Z,8
2016-06-23T03:36:37.970Z,8
2016-06-23T03:37:37.975Z,4
2016-06-23T03:38:37.946Z,8
2016-06-23T03:39:37.952Z,8
2016-06-23T03:40:37.967Z,8
2016-06-23T03:41:37.957Z,8
2016-06-23T03:42:37.964Z,8
2016-06-23T03:43:37.975Z,12
2016-06-23T03:44:37.974Z,12
2016-06-23T03:45:37.981Z,8
2016-06-23T03:46:37.971Z,8
2016-06-23T03:47:37.981Z,12
2016-06-23T03:48:37.994Z,12
2016-06-23T03:49:37.984Z,16
2016-06-23T03:50:37.994Z,36
2016-06-23T03:51:37.995Z,64
2016-06-23T03:52:37.989Z,88
2016-06-23T03:53:37.975Z,92
2016-06-23T03:54:37.980Z,100
2016-06-23T03:55:37.978Z,104
2016-06-23T03:56:38.003Z,112
2016-06-23T03:57:37.971Z,116
2016-06-23T03:58:37.980Z,120
2016-06-23T03:59:37.971Z,128
2016-06-23T04:00:37.983Z,132
2016-06-23T04:01:38.012Z,136
2016-06-23T04:02:37.989Z,140
2016-06-23T04:03:38.006Z,144
2016-06-23T04:04:38.018Z,152
2016-06-23T04:05:37.993Z,152
2016-06-23T04:06:37.998Z,160
2016-06-23T04:07:38.002Z,164
2016-06-23T04:08:37.996Z,168
2016-06-23T04:09:38.010Z,172
2016-06-23T04:10:38.025Z,176
2016-06-23T04:11:37.995Z,184
2016-06-23T04:12:37.993Z,188
2016-06-23T04:13:38.086Z,192
2016-06-23T04:14:38.008Z,196
2016-06-23T04:15:38.016Z,200
2016-06-23T04:16:38.015Z,208
2016-06-23T04:17:38.248Z,208
2016-06-23T04:18:38.010Z,212
2016-06-23T04:19:38.019Z,220
2016-06-23T04:20:37.995Z,220
2016-06-23T04:21:38.017Z,228
2016-06-23T04:22:38.011Z,232
2016-06-23T04:23:38.009Z,236
2016-06-23T04:24:38.023Z,240
2016-06-23T04:25:38.019Z,244
2016-06-23T04:26:38.015Z,244
2016-06-23T04:27:38.025Z,248
2016-06-23T04:28:38.025Z,248
2016-06-23T04:29:38.022Z,256
2016-06-23T04:30:38.031Z,260
2016-06-23T04:31:38.023Z,260
2016-06-23T04:32:38.036Z,268
2016-06-23T04:33:38.054Z,268
2016-06-23T04:34:37.421Z,272
2016-06-23T04:35:38.037Z,272
2016-06-23T04:36:38.041Z,276
2016-06-23T04:37:37.438Z,280
2016-06-23T04:38:38.045Z,288
2016-06-23T04:39:38.050Z,288
2016-06-23T04:40:38.044Z,292
2016-06-23T04:41:38.053Z,296
2016-06-23T04:42:38.068Z,296
2016-06-23T04:43:38.040Z,300
2016-06-23T04:44:38.044Z,304
2016-06-23T04:45:38.095Z,304
2016-06-23T04:46:38.043Z,308
2016-06-23T04:47:38.071Z,312
2016-06-23T04:48:38.060Z,312
2016-06-23T04:49:38.054Z,320
2016-06-23T04:50:38.045Z,320
2016-06-23T04:51:38.055Z,320
2016-06-23T04:52:38.075Z,320
2016-06-23T04:53:38.067Z,328
2016-06-23T04:54:38.068Z,328
2016-06-23T04:55:38.080Z,328
2016-06-23T04:56:38.063Z,332
2016-06-23T04:57:38.068Z,332
2016-06-23T04:58:38.065Z,336
2016-06-23T04:59:38.074Z,340
2016-06-23T05:00:38.060Z,344
2016-06-23T05:01:38.076Z,340
2016-06-23T05:02:38.055Z,344
2016-06-23T05:03:38.078Z,348
2016-06-23T05:04:38.069Z,348
2016-06-23T05:05:38.112Z,352
2016-06-23T05:06:38.093Z,352
2016-06-23T05:07:38.093Z,352
2016-06-23T05:08:38.078Z,356
2016-06-23T05:09:38.090Z,356
2016-06-23T05:10:38.090Z,356
2016-06-23T05:11:38.089Z,356
2016-06-23T05:12:38.082Z,360
2016-06-23T05:13:38.091Z,360
2016-06-23T05:14:38.099Z,364
2016-06-23T05:15:38.097Z,368
2016-06-23T05:16:38.111Z,368
2016-06-23T05:17:38.113Z,372
2016-06-23T05:18:38.312Z,372
2016-06-23T05:19:38.104Z,376
2016-06-23T05:20:38.104Z,376
2016-06-23T05:21:38.124Z,380
2016-06-23T05:22:38.114Z,384
2016-06-23T05:23:38.116Z,384
2016-06-23T05:24:38.147Z,384
2016-06-23T05:25:38.110Z,384
2016-06-23T05:26:38.128Z,392
2016-06-23T05:27:38.154Z,392
2016-06-23T05:28:38.124Z,392
2016-06-23T05:29:38.132Z,396
2016-06-23T05:30:38.138Z,396
2016-06-23T05:31:38.140Z,396
2016-06-23T05:32:38.180Z,400
2016-06-23T05:33:38.149Z,404
2016-06-23T05:34:38.152Z,404
2016-06-23T05:35:38.143Z,404
2016-06-23T05:36:38.140Z,404
2016-06-23T05:37:38.161Z,408
2016-06-23T05:38:38.142Z,404
2016-06-23T05:39:38.143Z,408
2016-06-23T05:40:38.155Z,408
2016-06-23T05:41:38.145Z,408
2016-06-23T05:42:38.150Z,412
2016-06-23T05:43:38.160Z,416
2016-06-23T05:44:38.157Z,416
2016-06-23T05:45:38.169Z,416
2016-06-23T05:46:38.156Z,412
2016-06-23T05:47:38.181Z,416
2016-06-23T05:48:38.173Z,416
2016-06-23T05:49:38.174Z,420
2016-06-23T05:50:38.159Z,416
2016-06-23T05:51:38.155Z,420
2016-06-23T05:52:38.167Z,424
2016-06-23T05:53:38.179Z,420
2016-06-23T05:54:38.184Z,420
2016-06-23T05:55:38.199Z,420
2016-06-23T05:56:38.205Z,420
2016-06-23T05:57:38.182Z,424
2016-06-23T05:58:38.189Z,424
2016-06-23T05:59:38.193Z,424
2016-06-23T06:00:38.184Z,420
2016-06-23T06:01:38.207Z,420
2016-06-23T06:02:38.202Z,424
2016-06-23T06:03:38.219Z,424
2016-06-23T06:04:38.227Z,424
2016-06-23T06:05:38.217Z,428
2016-06-23T06:06:38.206Z,424
2016-06-23T06:07:37.618Z,428
2016-06-23T06:08:38.240Z,424
2016-06-23T06:09:38.233Z,428
2016-06-23T06:10:38.267Z,420
2016-06-23T06:11:38.223Z,428
2016-06-23T06:12:38.229Z,424
2016-06-23T06:13:38.235Z,424
2016-06-23T06:14:38.239Z,424
2016-06-23T06:15:38.223Z,424
2016-06-23T06:16:38.228Z,424
2016-06-23T06:17:38.285Z,424
2016-06-23T06:18:38.247Z,424
2016-06-23T06:19:38.235Z,428
2016-06-23T06:20:38.458Z,424
2016-06-23T06:21:38.255Z,424
2016-06-23T06:22:38.257Z,424
2016-06-23T06:23:38.243Z,420
2016-06-23T06:24:38.262Z,420
2016-06-23T06:25:38.258Z,420
2016-06-23T06:26:38.254Z,420
2016-06-23T06:27:38.280Z,416
2016-06-23T06:28:38.257Z,412
2016-06-23T06:29:38.278Z,412
2016-06-23T06:30:38.269Z,408
2016-06-23T06:31:38.276Z,408
2016-06-23T06:32:38.264Z,408
2016-06-23T06:33:38.276Z,404
2016-06-23T06:34:38.276Z,404
2016-06-23T06:35:38.295Z,404
2016-06-23T06:36:38.267Z,404
2016-06-23T06:37:38.287Z,404
2016-06-23T06:38:38.285Z,404
2016-06-23T06:39:38.300Z,400
2016-06-23T06:40:38.292Z,400
2016-06-23T06:41:38.286Z,396
2016-06-23T06:42:38.295Z,396
2016-06-23T06:43:38.306Z,396
2016-06-23T06:44:38.294Z,392
2016-06-23T06:45:38.315Z,392
2016-06-23T06:46:38.298Z,388
2016-06-23T06:47:38.322Z,392
2016-06-23T06:48:38.345Z,384
2016-06-23T06:49:38.341Z,388
2016-06-23T06:50:38.320Z,384
2016-06-23T06:51:38.323Z,380
2016-06-23T06:52:38.329Z,384
2016-06-23T06:53:38.319Z,380
2016-06-23T06:54:38.324Z,380
2016-06-23T06:55:38.338Z,384
2016-06-23T06:56:38.334Z,376
2016-06-23T06:57:38.344Z,368
2016-06-23T06:58:38.326Z,368
2016-06-23T06:59:38.337Z,368
2016-06-23T07:00:38.351Z,364
2016-06-23T07:01:38.350Z,364
2016-06-23T07:02:38.357Z,364
2016-06-23T07:03:38.351Z,356
2016-06-23T07:04:38.345Z,360
2016-06-23T07:05:38.365Z,360
2016-06-23T07:06:38.381Z,356
2016-06-23T07:07:38.349Z,356
2016-06-23T07:08:38.372Z,356
2016-06-23T07:09:38.370Z,352
2016-06-23T07:10:38.359Z,352
2016-06-23T07:11:38.406Z,352
2016-06-23T07:12:38.383Z,344
2016-06-23T07:13:38.364Z,344
2016-06-23T07:14:38.399Z,344
2016-06-23T07:15:38.379Z,348
2016-06-23T07:16:38.413Z,344
2016-06-23T07:17:38.494Z,344
2016-06-23T07:18:38.395Z,344
2016-06-23T07:19:38.385Z,344
2016-06-23T07:20:38.383Z,340
2016-06-23T07:21:38.398Z,340
2016-06-23T07:22:38.435Z,340
2016-06-23T07:23:38.410Z,336
2016-06-23T07:24:38.442Z,336
2016-06-23T07:25:38.411Z,336
2016-06-23T07:26:38.423Z,332
2016-06-23T07:27:38.426Z,332
2016-06-23T07:28:38.426Z,328
2016-06-23T07:29:38.419Z,324
2016-06-23T07:30:38.421Z,324
2016-06-23T07:31:38.433Z,324
2016-06-23T07:32:38.437Z,324
2016-06-23T07:33:38.438Z,324
2016-06-23T07:34:38.438Z,320
2016-06-23T07:35:38.458Z,320
2016-06-23T07:36:38.456Z,320
2016-06-23T07:37:37.843Z,316
2016-06-23T07:38:39.075Z,312
2016-06-23T07:39:38.494Z,316
2016-06-23T07:40:38.476Z,312
2016-06-23T07:41:38.478Z,312
2016-06-23T07:42:38.477Z,312
2016-06-23T07:43:38.523Z,312
2016-06-23T07:44:38.468Z,308
2016-06-23T07:45:38.481Z,308
2016-06-23T07:46:38.492Z,308
2016-06-23T07:47:38.500Z,308
2016-06-23T07:48:39.144Z,308
2016-06-23T07:49:38.470Z,304
2016-06-23T07:50:38.494Z,300
2016-06-23T07:51:38.511Z,304
2016-06-23T07:52:38.512Z,300
2016-06-23T07:53:38.489Z,304
2016-06-23T07:54:38.503Z,300
2016-06-23T07:55:38.532Z,300
2016-06-23T07:56:38.502Z,296
2016-06-23T07:57:38.523Z,300
2016-06-23T07:58:37.902Z,296
2016-06-23T07:59:38.496Z,296
2016-06-23T08:00:38.517Z,292
2016-06-23T08:01:38.513Z,292
2016-06-23T08:02:38.541Z,292
2016-06-23T08:03:37.914Z,292
2016-06-23T08:04:38.508Z,284
2016-06-23T08:05:38.526Z,288
2016-06-23T08:06:38.529Z,292
2016-06-23T08:07:38.531Z,292
2016-06-23T08:08:38.548Z,288
2016-06-23T08:09:38.550Z,292
2016-06-23T08:10:38.560Z,288
2016-06-23T08:11:38.538Z,288
2016-06-23T08:12:38.561Z,288
2016-06-23T08:13:38.540Z,288
2016-06-23T08:14:38.561Z,288
2016-06-23T08:15:38.566Z,284
2016-06-23T08:16:38.585Z,284
2016-06-23T08:17:38.565Z,284
2016-06-23T08:18:38.564Z,284
2016-06-23T08:19:38.569Z,288
2016-06-23T08:20:38.567Z,284
2016-06-23T08:21:38.591Z,284
2016-06-23T08:22:38.602Z,284
2016-06-23T08:23:37.987Z,280
2016-06-23T08:24:38.601Z,284
2016-06-23T08:25:38.610Z,280
2016-06-23T08:26:38.914Z,284
2016-06-23T08:27:38.769Z,276
2016-06-23T08:28:38.602Z,280
2016-06-23T08:29:38.592Z,276
2016-06-23T08:30:38.599Z,272
2016-06-23T08:31:38.611Z,276
2016-06-23T08:32:38.597Z,272
2016-06-23T08:33:38.633Z,268
2016-06-23T08:34:38.624Z,268
2016-06-23T08:35:38.611Z,264
2016-06-23T08:36:38.621Z,264
2016-06-23T08:37:38.627Z,260
2016-06-23T08:38:38.603Z,260
2016-06-23T08:39:38.618Z,260
2016-06-23T08:40:38.632Z,260
2016-06-23T08:41:38.634Z,260
2016-06-23T08:42:38.624Z,260
2016-06-23T08:43:38.643Z,256
2016-06-23T08:44:38.647Z,256
2016-06-23T08:45:38.648Z,256
2016-06-23T08:46:38.660Z,252
2016-06-23T08:47:38.665Z,252
2016-06-23T08:48:38.650Z,252
2016-06-23T08:49:38.658Z,252
2016-06-23T08:50:38.685Z,248
2016-06-23T08:51:38.671Z,252
2016-06-23T08:52:38.671Z,248
2016-06-23T08:53:38.674Z,252
2016-06-23T08:54:38.685Z,248
2016-06-23T08:55:38.671Z,248
2016-06-23T08:56:38.678Z,244
2016-06-23T08:57:38.698Z,248
2016-06-23T08:58:38.674Z,248
2016-06-23T08:59:38.685Z,244
2016-06-23T09:00:38.692Z,244
2016-06-23T09:01:38.693Z,244
2016-06-23T09:02:38.703Z,244
2016-06-23T09:03:38.707Z,240
2016-06-23T09:04:38.706Z,244
2016-06-23T09:05:38.728Z,240
2016-06-23T09:06:38.707Z,240
2016-06-23T09:07:38.727Z,240
2016-06-23T09:08:38.738Z,236
2016-06-23T09:09:38.771Z,236
2016-06-23T09:10:38.718Z,232
2016-06-23T09:11:38.731Z,232
2016-06-23T09:12:38.731Z,232
2016-06-23T09:13:38.731Z,232
2016-06-23T09:14:38.745Z,228
2016-06-23T09:15:38.751Z,228
2016-06-23T09:16:38.747Z,228
2016-06-23T09:17:38.734Z,228
2016-06-23T09:18:38.759Z,228
2016-06-23T09:19:38.953Z,228
2016-06-23T09:20:38.777Z,224
2016-06-23T09:21:38.769Z,224
2016-06-23T09:22:38.770Z,220
2016-06-23T09:23:38.786Z,220
2016-06-23T09:24:38.779Z,216
2016-06-23T09:25:38.797Z,220
2016-06-23T09:26:38.804Z,216
2016-06-23T09:27:38.821Z,216
2016-06-23T09:28:38.823Z,216
2016-06-23T09:29:38.804Z,216
2016-06-23T09:30:38.783Z,216
2016-06-23T09:31:38.815Z,212
2016-06-23T09:32:38.800Z,212
2016-06-23T09:33:38.811Z,208
2016-06-23T09:34:38.807Z,208
2016-06-23T09:35:38.829Z,208
2016-06-23T09:36:38.804Z,204
2016-06-23T09:37:38.834Z,204
2016-06-23T09:38:38.819Z,196
2016-06-23T09:39:38.924Z,188
2016-06-23T09:40:38.834Z,184
2016-06-23T09:41:38.831Z,180
2016-06-23T09:42:38.819Z,172
2016-06-23T09:43:38.885Z,168
2016-06-23T09:44:38.832Z,164
2016-06-23T09:45:38.840Z,160
2016-06-23T09:46:38.855Z,160
2016-06-23T09:47:38.867Z,156
2016-06-23T09:48:38.859Z,152
2016-06-23T09:49:38.861Z,144
2016-06-23T09:50:38.865Z,140
2016-06-23T09:51:38.872Z,140
2016-06-23T09:52:38.854Z,140
2016-06-23T09:53:38.877Z,140
2016-06-23T09:54:38.895Z,140
2016-06-23T09:55:38.885Z,136
2016-06-23T09:56:38.882Z,140
2016-06-23T09:57:38.891Z,136
2016-06-23T09:58:39.429Z,136
2016-06-23T09:59:38.913Z,140
2016-06-23T10:00:38.901Z,136
2016-06-23T10:01:38.891Z,140
2016-06-23T10:02:38.918Z,140
2016-06-23T10:03:38.918Z,140
2016-06-23T10:04:38.927Z,140
2016-06-23T10:05:38.316Z,140
2016-06-23T10:06:39.060Z,140
2016-06-23T10:07:38.909Z,136
2016-06-23T10:08:38.920Z,136
2016-06-23T10:09:38.938Z,140
2016-06-23T10:10:38.933Z,136
2016-06-23T10:11:38.944Z,136
2016-06-23T10:12:38.929Z,140
2016-06-23T10:13:38.949Z,140
2016-06-23T10:14:38.936Z,140
2016-06-23T10:15:38.390Z,136
2016-06-23T10:16:38.946Z,140
2016-06-23T10:17:39.051Z,140
2016-06-23T10:18:38.969Z,140
2016-06-23T10:19:38.958Z,140
2016-06-23T10:20:38.958Z,140
2016-06-23T10:21:38.978Z,140
2016-06-23T10:22:38.963Z,144
2016-06-23T10:23:38.966Z,140
2016-06-23T10:24:38.967Z,144
2016-06-23T10:25:38.985Z,144
2016-06-23T10:26:39.010Z,140
2016-06-23T10:27:38.985Z,140
2016-06-23T10:28:38.969Z,140
2016-06-23T10:29:38.999Z,140
2016-06-23T10:30:38.992Z,144
2016-06-23T10:31:38.432Z,144
2016-06-23T10:32:39.003Z,140
2016-06-23T10:33:38.995Z,144
2016-06-23T10:34:39.005Z,140
2016-06-23T10:35:39.043Z,144
2016-06-23T10:36:38.999Z,144
2016-06-23T10:37:38.459Z,144
2016-06-23T10:38:39.057Z,144
2016-06-23T10:39:39.011Z,144
2016-06-23T10:40:39.026Z,144
2016-06-23T10:41:39.030Z,144
2016-06-23T10:42:39.021Z,144
2016-06-23T10:43:39.044Z,144
2016-06-23T10:44:39.036Z,140
2016-06-23T10:45:39.031Z,144
2016-06-23T10:46:39.038Z,144
2016-06-23T10:47:39.609Z,144
2016-06-23T10:48:39.052Z,140
2016-06-23T10:49:39.046Z,144
2016-06-23T10:50:39.054Z,144
2016-06-23T10:51:39.073Z,144
2016-06-23T10:52:39.045Z,144
2016-06-23T10:53:39.062Z,144
2016-06-23T10:54:39.073Z,140
2016-06-23T10:55:39.069Z,144
2016-06-23T10:56:39.073Z,144
2016-06-23T10:57:39.071Z,144
2016-06-23T10:58:39.070Z,144
2016-06-23T10:59:39.069Z,144
2016-06-23T11:00:39.083Z,144
2016-06-23T11:01:39.081Z,144
2016-06-23T11:02:39.087Z,144
2016-06-23T11:03:39.083Z,144
2016-06-23T11:04:39.095Z,144
2016-06-23T11:05:39.091Z,144
2016-06-23T11:06:39.118Z,144
2016-06-23T11:07:39.140Z,144
2016-06-23T11:08:39.107Z,144
2016-06-23T11:09:39.124Z,144
2016-06-23T11:10:39.124Z,144
2016-06-23T11:11:39.123Z,144
2016-06-23T11:12:39.125Z,144
2016-06-23T11:13:39.118Z,144
2016-06-23T11:14:39.152Z,144
2016-06-23T11:15:39.619Z,144
2016-06-23T11:16:38.531Z,144
2016-06-23T11:17:39.141Z,144
2016-06-23T11:18:38.546Z,144
2016-06-23T11:19:39.142Z,144
2016-06-23T11:20:39.144Z,144
2016-06-23T11:21:39.157Z,144
2016-06-23T11:22:39.152Z,144
2016-06-23T11:23:39.184Z,140
2016-06-23T11:24:39.171Z,140
2016-06-23T11:25:39.152Z,144
2016-06-23T11:26:39.155Z,144
2016-06-23T11:27:39.161Z,140
2016-06-23T11:28:39.190Z,140
2016-06-23T11:29:39.177Z,140
2016-06-23T11:30:38.574Z,136
2016-06-23T11:31:39.210Z,140
2016-06-23T11:32:39.187Z,140
2016-06-23T11:33:39.783Z,136
2016-06-23T11:34:39.221Z,136
2016-06-23T11:35:39.174Z,140
2016-06-23T11:36:39.215Z,136
2016-06-23T11:37:39.197Z,136
2016-06-23T11:38:39.201Z,136
2016-06-23T11:39:39.212Z,132
2016-06-23T11:40:39.200Z,136
2016-06-23T11:41:39.519Z,136
2016-06-23T11:42:39.211Z,132
2016-06-23T11:43:39.215Z,132
2016-06-23T11:44:39.230Z,132
2016-06-23T11:45:39.227Z,132
2016-06-23T11:46:39.263Z,132
2016-06-23T11:47:39.220Z,132
2016-06-23T11:48:39.258Z,132
2016-06-23T11:49:39.257Z,132
2016-06-23T11:50:39.256Z,128
2016-06-23T11:51:39.248Z,128
2016-06-23T11:52:39.240Z,128
2016-06-23T11:53:39.259Z,128
2016-06-23T11:54:39.247Z,128
2016-06-23T11:55:39.264Z,128
2016-06-23T11:56:39.256Z,128
2016-06-23T11:57:39.278Z,128
2016-06-23T11:58:39.273Z,128
2016-06-23T11:59:39.285Z,124
2016-06-23T12:00:39.273Z,124
2016-06-23T12:01:39.270Z,128
2016-06-23T12:02:39.271Z,124
2016-06-23T12:03:39.305Z,120
2016-06-23T12:04:39.311Z,120
2016-06-23T12:05:39.282Z,124
2016-06-23T12:06:39.294Z,124
2016-06-23T12:07:39.318Z,124
2016-06-23T12:08:39.293Z,120
2016-06-23T12:09:39.290Z,120
2016-06-23T12:10:39.304Z,120
2016-06-23T12:11:39.320Z,120
2016-06-23T12:12:39.300Z,116
2016-06-23T12:13:39.300Z,116
2016-06-23T12:14:39.313Z,120
2016-06-23T12:15:38.710Z,116
2016-06-23T12:16:39.319Z,116
2016-06-23T12:17:39.380Z,116
2016-06-23T12:18:39.312Z,112
2016-06-23T12:19:39.355Z,116
2016-06-23T12:20:39.326Z,116
2016-06-23T12:21:39.343Z,112
2016-06-23T12:22:39.351Z,116
2016-06-23T12:23:39.350Z,112
2016-06-23T12:24:39.378Z,112
2016-06-23T12:25:39.351Z,112
2016-06-23T12:26:39.360Z,112
2016-06-23T12:27:39.355Z,108
2016-06-23T12:28:39.366Z,108
2016-06-23T12:29:39.364Z,112
2016-06-23T12:30:39.368Z,108
2016-06-23T12:31:39.368Z,108
2016-06-23T12:32:39.376Z,108
2016-06-23T12:33:39.368Z,108
2016-06-23T12:34:39.401Z,108
2016-06-23T12:35:39.394Z,104
2016-06-23T12:36:39.402Z,108
2016-06-23T12:37:39.404Z,104
2016-06-23T12:38:38.791Z,104
2016-06-23T12:39:39.412Z,104
2016-06-23T12:40:39.407Z,104
2016-06-23T12:41:39.403Z,104
2016-06-23T12:42:39.419Z,100
2016-06-23T12:43:39.415Z,100
2016-06-23T12:44:39.409Z,104
2016-06-23T12:45:39.445Z,100
2016-06-23T12:46:39.419Z,100
2016-06-23T12:47:39.434Z,100
2016-06-23T12:48:39.423Z,100
2016-06-23T12:49:39.429Z,100
2016-06-23T12:50:39.431Z,100
2016-06-23T12:51:39.460Z,96
2016-06-23T12:52:39.462Z,96
2016-06-23T12:53:39.433Z,88
2016-06-23T12:54:39.461Z,100
2016-06-23T12:55:39.447Z,96
2016-06-23T12:56:39.449Z,96
2016-06-23T12:57:39.455Z,96
2016-06-23T12:58:39.440Z,96
2016-06-23T12:59:39.450Z,92
2016-06-23T13:00:39.456Z,96
2016-06-23T13:01:39.458Z,92
2016-06-23T13:02:39.459Z,92
2016-06-23T13:03:39.478Z,92
2016-06-23T13:04:39.484Z,92
2016-06-23T13:05:39.503Z,92
2016-06-23T13:06:39.466Z,92
2016-06-23T13:07:39.463Z,92
2016-06-23T13:08:39.481Z,88
2016-06-23T13:09:39.501Z,92
2016-06-23T13:10:39.504Z,88
2016-06-23T13:11:39.500Z,88
2016-06-23T13:12:39.499Z,88
2016-06-23T13:13:39.511Z,88
2016-06-23T13:14:39.506Z,88
2016-06-23T13:15:39.502Z,84
2016-06-23T13:16:39.534Z,84
2016-06-23T13:17:39.538Z,84
2016-06-23T13:18:39.526Z,88
2016-06-23T13:19:39.503Z,84
2016-06-23T13:20:39.536Z,84
2016-06-23T13:21:39.533Z,84
2016-06-23T13:22:39.538Z,84
2016-06-23T13:23:39.541Z,84
2016-06-23T13:24:39.537Z,84
2016-06-23T13:25:39.543Z,80
2016-06-23T13:26:39.538Z,84
2016-06-23T13:27:39.545Z,80
2016-06-23T13:28:39.541Z,80
2016-06-23T13:29:39.550Z,80
2016-06-23T13:30:39.543Z,80
2016-06-23T13:31:39.556Z,76
2016-06-23T13:32:39.562Z,80
2016-06-23T13:33:39.564Z,80
2016-06-23T13:34:39.596Z,76
2016-06-23T13:35:39.569Z,76
2016-06-23T13:36:39.578Z,76
2016-06-23T13:37:39.627Z,76
2016-06-23T13:38:39.601Z,76
2016-06-23T13:39:39.579Z,76
2016-06-23T13:40:39.569Z,76
2016-06-23T13:41:39.593Z,76
2016-06-23T13:42:39.621Z,76
2016-06-23T13:43:39.600Z,76
2016-06-23T13:44:39.594Z,72
2016-06-23T13:45:39.630Z,72
2016-06-23T13:46:39.613Z,76
2016-06-23T13:47:39.623Z,72
2016-06-23T13:48:39.605Z,72
2016-06-23T13:49:39.622Z,72
2016-06-23T13:50:39.607Z,72
2016-06-23T13:51:39.634Z,72
2016-06-23T13:52:39.031Z,72
2016-06-23T13:53:39.627Z,72
2016-06-23T13:54:39.639Z,72
2016-06-23T13:55:39.690Z,72
2016-06-23T13:56:39.658Z,72
2016-06-23T13:57:39.638Z,68
2016-06-23T13:58:39.650Z,72
2016-06-23T13:59:39.653Z,72
2016-06-23T14:00:39.646Z,68
2016-06-23T14:01:39.658Z,68
2016-06-23T14:02:39.675Z,68
2016-06-23T14:03:39.669Z,68
2016-06-23T14:04:39.657Z,72